Time;durP1;ratioP1;P1;durP2;ratioP2;P2;SDS_P1;SDS_P2;PMS_P1;PMS_P2;Temp;Humidity;BMP_temperature;BMP_pressure;BME280_temperature;BME280_humidity;BME280_pressure;Samples;Min_cycle;Max_cycle;Signal;HPM_P1;HPM_P2
2023/01/19 00:00:34;;;;;;;10.30;6.13;;;;;;;;;;5041592;28;20017;-79
2023/01/19 00:03:20;;;;;;;15.02;5.88;;;;;;;;;;5043537;28;20118;-77
2023/01/19 00:06:06;;;;;;;13.90;6.22;;;;;;;;;;5043110;28;20391;-79
2023/01/19 00:08:51;;;;;;;11.27;5.95;;;;;;;;;;5039332;28;20021;-78
2023/01/19 00:11:37;;;;;;;11.57;5.88;;;;;;;;;;5026351;28;20055;-79
2023/01/19 00:14:22;;;;;;;10.02;5.45;;;;;;;;;;5037387;28;20106;-75
2023/01/19 00:17:07;;;;;;;12.05;6.55;;;;;;;;;;5041382;28;20122;-72
2023/01/19 00:19:52;;;;;;;14.82;7.60;;;;;;;;;;5045436;28;20082;-73
2023/01/19 00:22:37;;;;;;;16.05;7.43;;;;;;;;;;5047061;28;20036;-73
2023/01/19 00:25:23;;;;;;;12.43;6.65;;;;;;;;;;5053169;28;20013;-72
2023/01/19 00:28:13;;;;;;;11.77;6.15;;;;;;;;;;5056276;28;20280;-75
2023/01/19 00:30:58;;;;;;;12.77;6.63;;;;;;;;;;5026187;28;20029;-74
2023/01/19 00:33:47;;;;;;;10.55;5.75;;;;;;;;;;5044783;28;20052;-77
2023/01/19 00:36:33;;;;;;;10.88;6.25;;;;;;;;;;5043751;28;20043;-76
2023/01/19 00:39:18;;;;;;;12.25;6.10;;;;;;;;;;5043305;28;20496;-73
2023/01/19 00:45:12;;;;;;;11.65;6.47;;;;;;;;;;5043751;28;20091;-74
2023/01/19 00:47:57;;;;;;;9.80;6.13;;;;;;;;;;5052763;28;20033;-75
2023/01/19 00:50:42;;;;;;;10.98;6.05;;;;;;;;;;5045428;28;20047;-77
2023/01/19 00:53:31;;;;;;;15.52;5.93;;;;;;;;;;5046770;28;20452;-67
2023/01/19 00:56:16;;;;;;;10.55;5.60;;;;;;;;;;5050303;28;20050;-69
2023/01/19 00:59:01;;;;;;;13.43;6.68;;;;;;;;;;5048497;28;20404;-68
2023/01/19 01:01:47;;;;;;;11.38;6.47;;;;;;;;;;5045369;28;20432;-67
2023/01/19 01:04:33;;;;;;;13.32;6.43;;;;;;;;;;5044809;28;20172;-70
2023/01/19 01:07:18;;;;;;;15.85;7.45;;;;;;;;;;5043395;28;20068;-78
2023/01/19 01:10:03;;;;;;;12.00;7.05;;;;;;;;;;5033793;28;20055;-70
2023/01/19 01:12:48;;;;;;;8.98;5.63;;;;;;;;;;5047477;28;20025;-70
2023/01/19 01:15:34;;;;;;;11.70;6.53;;;;;;;;;;5046759;28;20499;-68
2023/01/19 01:18:19;;;;;;;16.17;7.80;;;;;;;;;;5045392;28;20435;-70
2023/01/19 01:21:06;;;;;;;13.60;6.47;;;;;;;;;;5044019;28;20029;-71
2023/01/19 01:23:51;;;;;;;11.48;6.55;;;;;;;;;;5046459;28;20282;-68
2023/01/19 01:26:37;;;;;;;15.18;6.80;;;;;;;;;;5044250;28;20048;-71
2023/01/19 01:29:22;;;;;;;10.88;6.32;;;;;;;;;;5052354;28;20021;-80
2023/01/19 01:32:08;;;;;;;10.57;6.45;;;;;;;;;;5031067;28;20166;-79
2023/01/19 01:34:53;;;;;;;12.15;7.53;;;;;;;;;;5046559;28;20545;-78
2023/01/19 01:37:39;;;;;;;12.02;5.70;;;;;;;;;;5045856;28;20021;-80
2023/01/19 01:40:24;;;;;;;11.77;6.50;;;;;;;;;;5041753;28;20037;-79
2023/01/19 01:43:11;;;;;;;14.45;6.90;;;;;;;;;;5045449;28;20475;-77
2023/01/19 01:45:56;;;;;;;11.70;6.78;;;;;;;;;;5055858;28;20078;-79
2023/01/19 01:48:43;;;;;;;14.85;7.05;;;;;;;;;;5045936;28;20043;-80
2023/01/19 01:51:48;;;;;;;15.50;6.53;;;;;;;;;;5038585;28;20090;-79
2023/01/19 01:54:33;;;;;;;12.88;6.47;;;;;;;;;;5046822;28;20033;-80
2023/01/19 01:57:19;;;;;;;13.75;6.05;;;;;;;;;;5044544;28;20369;-79
2023/01/19 02:00:05;;;;;;;13.10;7.13;;;;;;;;;;5049976;28;20102;-82
2023/01/19 02:02:50;;;;;;;12.45;6.55;;;;;;;;;;5042370;28;20484;-77
2023/01/19 02:05:35;;;;;;;12.88;7.15;;;;;;;;;;5046684;28;20104;-71
2023/01/19 02:14:38;;;;;;;13.68;6.95;;;;;;;;;;5046375;28;20028;-70
2023/01/19 02:17:23;;;;;;;13.00;6.28;;;;;;;;;;5041293;28;20016;-71
2023/01/19 02:20:09;;;;;;;14.43;6.85;;;;;;;;;;5046160;28;20068;-70
2023/01/19 02:22:56;;;;;;;13.35;6.13;;;;;;;;;;5046166;28;20063;-73
2023/01/19 02:25:42;;;;;;;14.52;7.30;;;;;;;;;;5045411;28;20032;-70
2023/01/19 02:28:28;;;;;;;11.27;5.72;;;;;;;;;;5043121;28;20113;-72
2023/01/19 02:31:14;;;;;;;13.52;6.75;;;;;;;;;;5043942;28;20047;-70
2023/01/19 02:34:00;;;;;;;15.15;6.57;;;;;;;;;;5036037;28;20540;-69
2023/01/19 02:36:53;;;;;;;12.95;6.57;;;;;;;;;;5043716;28;20064;-71
2023/01/19 02:39:49;;;;;;;12.30;6.47;;;;;;;;;;5041981;28;20084;-80
2023/01/19 02:42:47;;;;;;;11.95;6.97;;;;;;;;;;5043254;28;20035;-79
2023/01/19 02:45:32;;;;;;;14.65;7.15;;;;;;;;;;5042175;28;20490;-79
2023/01/19 02:48:18;;;;;;;11.05;6.55;;;;;;;;;;5042052;28;20415;-78
2023/01/19 02:51:10;;;;;;;17.48;7.07;;;;;;;;;;5042392;28;20174;-79
2023/01/19 02:54:15;;;;;;;14.10;7.10;;;;;;;;;;5045675;28;20033;-80
2023/01/19 02:57:13;;;;;;;15.65;6.25;;;;;;;;;;5056710;28;20029;-78
2023/01/19 03:00:09;;;;;;;10.63;5.70;;;;;;;;;;5041632;28;20031;-77
2023/01/19 03:03:14;;;;;;;13.82;6.97;;;;;;;;;;5042946;28;20020;-70
2023/01/19 03:06:11;;;;;;;12.13;6.07;;;;;;;;;;5059071;28;20102;-70
2023/01/19 03:09:05;;;;;;;13.77;6.03;;;;;;;;;;5040191;28;20028;-69
2023/01/19 03:11:58;;;;;;;14.13;6.75;;;;;;;;;;5043405;28;20091;-67
2023/01/19 03:14:46;;;;;;;11.70;6.65;;;;;;;;;;5056771;28;20029;-67
2023/01/19 03:17:32;;;;;;;11.30;6.30;;;;;;;;;;5040943;28;20065;-81
2023/01/19 03:20:20;;;;;;;14.35;6.68;;;;;;;;;;5044510;28;20039;-70
2023/01/19 03:23:07;;;;;;;12.20;6.22;;;;;;;;;;5044775;28;20029;-70
2023/01/19 03:25:54;;;;;;;13.27;6.38;;;;;;;;;;5043010;28;20021;-69
2023/01/19 03:28:40;;;;;;;13.50;6.93;;;;;;;;;;5042662;28;20032;-69
2023/01/19 03:31:27;;;;;;;14.43;6.63;;;;;;;;;;5031364;28;20032;-69
2023/01/19 03:34:13;;;;;;;12.32;7.43;;;;;;;;;;5043563;28;20029;-69
2023/01/19 03:37:01;;;;;;;12.45;7.10;;;;;;;;;;5050379;28;20033;-69
2023/01/19 03:39:47;;;;;;;11.90;5.55;;;;;;;;;;5043207;28;20064;-77
2023/01/19 03:42:32;;;;;;;10.82;6.47;;;;;;;;;;5042444;28;20105;-78
2023/01/19 03:45:18;;;;;;;12.02;7.07;;;;;;;;;;5043790;28;20028;-78
2023/01/19 03:48:04;;;;;;;11.55;6.15;;;;;;;;;;5024549;28;20163;-79
2023/01/19 03:50:50;;;;;;;14.35;6.72;;;;;;;;;;5047866;28;20033;-77
2023/01/19 03:53:35;;;;;;;10.23;5.80;;;;;;;;;;5048987;28;20467;-78
2023/01/19 03:56:22;;;;;;;11.57;6.30;;;;;;;;;;5032828;28;20043;-74
2023/01/19 03:59:07;;;;;;;14.40;7.15;;;;;;;;;;5047591;28;20024;-75
2023/01/19 04:01:52;;;;;;;14.27;7.47;;;;;;;;;;5043580;28;20033;-74
2023/01/19 04:04:38;;;;;;;12.48;6.40;;;;;;;;;;5046234;28;20017;-73
2023/01/19 04:07:24;;;;;;;11.32;6.28;;;;;;;;;;5041612;28;20118;-71
2023/01/19 04:10:11;;;;;;;13.23;6.30;;;;;;;;;;5050651;28;21329;-73
2023/01/19 04:12:57;;;;;;;17.98;8.23;;;;;;;;;;5047703;28;20021;-76
2023/01/19 04:15:42;;;;;;;15.13;6.97;;;;;;;;;;5044248;28;20024;-73
2023/01/19 04:18:28;;;;;;;15.50;6.18;;;;;;;;;;5044153;28;20029;-74
2023/01/19 04:21:14;;;;;;;14.65;7.28;;;;;;;;;;5030736;28;21970;-73
2023/01/19 04:23:59;;;;;;;10.75;5.97;;;;;;;;;;5033817;28;20028;-75
2023/01/19 04:26:45;;;;;;;11.55;6.50;;;;;;;;;;5044361;28;20040;-74
2023/01/19 04:29:30;;;;;;;11.48;5.20;;;;;;;;;;5033268;28;20032;-73
2023/01/19 04:32:15;;;;;;;10.63;5.50;;;;;;;;;;5042560;28;20041;-72
2023/01/19 04:35:01;;;;;;;12.00;5.70;;;;;;;;;;5029813;28;20029;-72
2023/01/19 04:37:46;;;;;;;9.73;5.82;;;;;;;;;;5049991;28;20044;-75
2023/01/19 04:40:31;;;;;;;9.70;4.80;;;;;;;;;;5036589;28;20256;-75
2023/01/19 04:43:17;;;;;;;12.25;5.63;;;;;;;;;;5045159;28;20109;-76
2023/01/19 04:46:03;;;;;;;13.85;6.25;;;;;;;;;;5032422;28;20021;-72
2023/01/19 04:48:48;;;;;;;12.85;5.90;;;;;;;;;;5022842;28;20033;-73
2023/01/19 04:51:34;;;;;;;13.18;6.15;;;;;;;;;;5047207;28;20426;-71
2023/01/19 04:54:19;;;;;;;11.82;5.70;;;;;;;;;;5037918;28;20068;-70
2023/01/19 04:57:05;;;;;;;12.35;5.75;;;;;;;;;;5045363;28;20021;-70
2023/01/19 04:59:50;;;;;;;10.60;5.85;;;;;;;;;;5025946;28;20447;-70
2023/01/19 05:02:35;;;;;;;11.60;6.47;;;;;;;;;;5059285;28;20394;-70
2023/01/19 05:05:21;;;;;;;12.30;6.45;;;;;;;;;;5046786;28;20113;-68
2023/01/19 05:08:06;;;;;;;13.20;5.63;;;;;;;;;;5045942;28;20475;-74
2023/01/19 05:10:51;;;;;;;11.35;6.43;;;;;;;;;;5030237;28;20115;-79
2023/01/19 05:13:36;;;;;;;12.35;6.70;;;;;;;;;;5055336;28;20312;-79
2023/01/19 05:16:21;;;;;;;16.20;6.50;;;;;;;;;;5042069;28;20068;-79
2023/01/19 05:19:07;;;;;;;10.63;6.13;;;;;;;;;;5044948;28;20487;-81
2023/01/19 05:21:53;;;;;;;12.23;7.38;;;;;;;;;;5047747;28;20144;-79
2023/01/19 05:24:38;;;;;;;12.05;6.47;;;;;;;;;;5046749;28;20559;-80
2023/01/19 05:27:23;;;;;;;13.75;6.60;;;;;;;;;;5046068;28;20013;-73
2023/01/19 05:30:09;;;;;;;12.93;6.32;;;;;;;;;;5035078;28;20037;-71
2023/01/19 05:32:55;;;;;;;12.15;6.72;;;;;;;;;;5041268;28;20103;-69
2023/01/19 05:35:40;;;;;;;11.38;6.55;;;;;;;;;;5023594;28;20025;-68
2023/01/19 05:38:26;;;;;;;13.20;6.28;;;;;;;;;;5041685;28;20073;-69
2023/01/19 05:41:11;;;;;;;13.80;6.03;;;;;;;;;;5043762;28;20029;-68
2023/01/19 05:43:56;;;;;;;11.55;6.00;;;;;;;;;;5041539;28;20048;-73
2023/01/19 05:46:42;;;;;;;15.75;7.68;;;;;;;;;;5048912;28;20435;-83
2023/01/19 05:49:27;;;;;;;14.75;6.53;;;;;;;;;;5044191;28;20025;-75
2023/01/19 05:52:12;;;;;;;14.55;7.50;;;;;;;;;;5057865;28;20139;-76
2023/01/19 05:54:57;;;;;;;13.82;7.20;;;;;;;;;;5043949;28;20052;-75
2023/01/19 05:57:43;;;;;;;12.05;7.05;;;;;;;;;;5044757;28;20025;-77
2023/01/19 06:00:28;;;;;;;12.45;6.50;;;;;;;;;;5041590;28;20197;-77
2023/01/19 06:03:13;;;;;;;17.70;6.88;;;;;;;;;;5028533;28;20462;-78
2023/01/19 06:05:59;;;;;;;10.85;6.25;;;;;;;;;;5035428;28;20056;-73
2023/01/19 06:08:44;;;;;;;11.90;6.72;;;;;;;;;;5039510;28;20025;-72
2023/01/19 06:11:29;;;;;;;15.63;7.07;;;;;;;;;;5042237;28;20369;-73
2023/01/19 06:14:15;;;;;;;10.93;6.15;;;;;;;;;;5026087;28;20029;-72
2023/01/19 06:17:00;;;;;;;13.40;7.00;;;;;;;;;;5047347;28;20066;-72
2023/01/19 06:19:45;;;;;;;14.88;7.20;;;;;;;;;;5051732;28;20036;-71
2023/01/19 06:22:31;;;;;;;13.15;6.25;;;;;;;;;;5043749;28;20043;-79
2023/01/19 06:25:16;;;;;;;14.93;6.85;;;;;;;;;;5045634;28;20083;-77
2023/01/19 06:28:01;;;;;;;12.85;7.28;;;;;;;;;;5039965;28;20039;-78
2023/01/19 06:30:47;;;;;;;16.52;8.05;;;;;;;;;;5043317;28;20492;-77
2023/01/19 06:33:33;;;;;;;14.05;6.95;;;;;;;;;;5040138;28;20024;-76
2023/01/19 06:36:18;;;;;;;12.00;7.07;;;;;;;;;;5044319;28;20028;-79
2023/01/19 06:39:04;;;;;;;13.65;7.30;;;;;;;;;;5044128;28;20037;-76
2023/01/19 06:41:50;;;;;;;13.77;7.10;;;;;;;;;;5044213;28;20191;-79
2023/01/19 06:44:35;;;;;;;27.65;8.85;;;;;;;;;;5036922;28;20539;-70
2023/01/19 06:47:20;;;;;;;14.57;7.95;;;;;;;;;;5035961;28;20037;-68
2023/01/19 06:50:06;;;;;;;12.57;6.60;;;;;;;;;;5044909;28;20044;-69
2023/01/19 06:52:51;;;;;;;14.65;7.15;;;;;;;;;;5044160;28;20029;-69
2023/01/19 06:55:38;;;;;;;13.88;6.40;;;;;;;;;;5044210;28;20029;-69
2023/01/19 06:58:23;;;;;;;13.02;6.82;;;;;;;;;;5043673;28;20118;-69
2023/01/19 07:01:08;;;;;;;15.48;7.20;;;;;;;;;;5037363;28;20021;-78
2023/01/19 07:03:53;;;;;;;11.68;7.15;;;;;;;;;;5043719;28;20039;-79
2023/01/19 07:06:38;;;;;;;14.45;7.38;;;;;;;;;;5043339;28;20340;-78
2023/01/19 07:09:24;;;;;;;14.68;7.68;;;;;;;;;;5041164;28;20029;-79
2023/01/19 07:12:09;;;;;;;14.68;6.95;;;;;;;;;;5045300;28;20028;-79
2023/01/19 07:14:54;;;;;;;13.98;7.30;;;;;;;;;;5056872;28;20025;-79
2023/01/19 07:17:41;;;;;;;14.32;6.72;;;;;;;;;;5040490;28;20036;-71
2023/01/19 07:20:26;;;;;;;12.27;7.13;;;;;;;;;;5047025;28;20043;-69
2023/01/19 07:23:11;;;;;;;15.88;7.50;;;;;;;;;;5037235;28;20479;-68
2023/01/19 07:25:56;;;;;;;15.07;7.25;;;;;;;;;;5043344;28;20025;-71
2023/01/19 07:28:42;;;;;;;12.70;6.93;;;;;;;;;;5041431;28;20086;-68
2023/01/19 07:31:27;;;;;;;12.20;6.80;;;;;;;;;;5040593;28;20035;-69
2023/01/19 07:34:12;;;;;;;13.43;6.75;;;;;;;;;;5041291;28;20692;-74
2023/01/19 07:36:57;;;;;;;15.00;7.00;;;;;;;;;;5043523;28;20021;-72
2023/01/19 07:39:43;;;;;;;13.73;7.30;;;;;;;;;;5041037;28;20060;-73
2023/01/19 07:42:28;;;;;;;14.38;8.07;;;;;;;;;;5040270;28;20075;-74
2023/01/19 07:45:14;;;;;;;11.80;6.40;;;;;;;;;;5041105;28;20658;-75
2023/01/19 07:48:00;;;;;;;14.13;6.78;;;;;;;;;;5039221;28;20474;-75
2023/01/19 07:50:45;;;;;;;14.13;6.65;;;;;;;;;;5025074;28;20044;-78
2023/01/19 07:53:31;;;;;;;15.45;7.80;;;;;;;;;;5051551;28;20029;-83
2023/01/19 07:56:16;;;;;;;12.40;6.80;;;;;;;;;;5022743;28;20112;-68
2023/01/19 07:59:01;;;;;;;12.05;6.82;;;;;;;;;;5024652;28;20494;-67
2023/01/19 08:01:46;;;;;;;12.68;7.50;;;;;;;;;;5036249;28;20639;-67
2023/01/19 08:04:32;;;;;;;13.75;6.20;;;;;;;;;;5040001;28;20047;-67
2023/01/19 08:07:17;;;;;;;11.57;6.15;;;;;;;;;;5043773;28;20049;-66
2023/01/19 08:10:02;;;;;;;17.92;7.00;;;;;;;;;;5023802;28;20067;-65
2023/01/19 08:12:47;;;;;;;13.80;7.05;;;;;;;;;;5036090;28;20025;-74
2023/01/19 08:15:33;;;;;;;18.65;7.05;;;;;;;;;;5039319;28;20025;-78
2023/01/19 08:18:19;;;;;;;12.45;6.20;;;;;;;;;;5055128;28;20124;-76
2023/01/19 08:21:04;;;;;;;12.40;5.93;;;;;;;;;;5042995;28;20104;-76
2023/01/19 08:23:53;;;;;;;10.48;5.25;;;;;;;;;;5037536;28;20070;-77
2023/01/19 08:26:38;;;;;;;10.83;5.50;;;;;;;;;;5029205;28;20697;-76
2023/01/19 08:29:23;;;;;;;11.45;5.25;;;;;;;;;;5036788;28;20115;-76
2023/01/19 08:32:08;;;;;;;9.07;4.90;;;;;;;;;;5037780;28;20029;-77
2023/01/19 08:34:54;;;;;;;9.68;5.03;;;;;;;;;;5040767;28;20035;-71
2023/01/19 08:37:39;;;;;;;9.63;5.72;;;;;;;;;;5038206;28;20566;-71
2023/01/19 08:40:24;;;;;;;9.38;5.03;;;;;;;;;;5043498;28;20045;-73
2023/01/19 08:43:13;;;;;;;10.20;5.38;;;;;;;;;;5042388;28;20548;-73
2023/01/19 08:45:59;;;;;;;9.15;5.25;;;;;;;;;;5041561;28;20076;-71
2023/01/19 08:48:44;;;;;;;14.18;4.85;;;;;;;;;;5042988;28;20032;-74
2023/01/19 08:51:29;;;;;;;10.23;5.20;;;;;;;;;;5039725;28;20041;-78
2023/01/19 08:54:15;;;;;;;8.63;4.05;;;;;;;;;;5042848;28;20200;-78
2023/01/19 08:57:00;;;;;;;9.93;4.22;;;;;;;;;;5065648;28;20033;-73
2023/01/19 08:59:46;;;;;;;8.40;4.40;;;;;;;;;;5043766;28;20605;-77
2023/01/19 09:02:31;;;;;;;10.43;5.10;;;;;;;;;;5045674;28;20028;-77
2023/01/19 09:05:16;;;;;;;8.38;4.82;;;;;;;;;;5043544;28;20387;-76
2023/01/19 09:08:02;;;;;;;8.40;4.75;;;;;;;;;;5044936;28;20498;-75
2023/01/19 09:10:49;;;;;;;10.38;5.90;;;;;;;;;;5049713;28;20036;-72
2023/01/19 09:13:34;;;;;;;10.70;4.95;;;;;;;;;;5043597;28;20118;-74
2023/01/19 09:16:19;;;;;;;11.18;4.82;;;;;;;;;;5029423;28;20506;-77
2023/01/19 09:19:07;;;;;;;7.70;4.32;;;;;;;;;;5042056;28;20017;-76
2023/01/19 09:21:53;;;;;;;9.88;4.93;;;;;;;;;;5041965;28;20036;-75
2023/01/19 09:24:38;;;;;;;8.23;4.22;;;;;;;;;;5039981;28;20037;-72
2023/01/19 09:27:24;;;;;;;8.07;4.00;;;;;;;;;;5027998;28;20487;-78
2023/01/19 09:30:10;;;;;;;9.25;4.35;;;;;;;;;;5106351;22;20057;-72
2023/01/19 09:33:00;;;;;;;8.38;4.55;;;;;;;;;;5056630;28;20106;-73
2023/01/19 09:35:45;;;;;;;;;;;;;;;;;;5032430;28;20104;-70
2023/01/19 09:38:31;;;;;;;12.05;4.13;;;;;;;;;;5046398;28;19915;-72
2023/01/19 09:41:21;;;;;;;7.78;4.28;;;;;;;;;;5058414;28;20028;-69
2023/01/19 09:44:13;;;;;;;7.82;4.03;;;;;;;;;;5057134;28;20640;-72
2023/01/19 09:47:00;;;;;;;8.95;4.53;;;;;;;;;;5032548;28;20043;-82
2023/01/19 09:49:49;;;;;;;9.25;4.30;;;;;;;;;;5044684;28;20045;-79
2023/01/19 09:52:39;;;;;;;9.50;4.75;;;;;;;;;;5055090;28;20446;-82
2023/01/19 09:55:26;;;;;;;8.35;4.68;;;;;;;;;;5039932;28;20025;-79
2023/01/19 09:58:15;;;;;;;8.25;4.05;;;;;;;;;;5060679;28;20498;-77
2023/01/19 10:01:06;;;;;;;11.07;4.57;;;;;;;;;;5037882;28;20357;-80
2023/01/19 10:03:56;;;;;;;7.35;4.03;;;;;;;;;;5050218;28;20057;-71
2023/01/19 10:06:41;;;;;;;6.90;3.80;;;;;;;;;;5036052;28;20029;-69
2023/01/19 10:09:46;;;;;;;8.10;3.95;;;;;;;;;;5051814;28;20500;-69
2023/01/19 10:12:51;;;;;;;8.57;4.32;;;;;;;;;;5041229;28;20119;-68
2023/01/19 10:15:40;;;;;;;7.95;4.20;;;;;;;;;;5051789;28;20027;-68
2023/01/19 10:18:50;;;;;;;9.65;4.47;;;;;;;;;;5042622;28;20055;-69
2023/01/19 10:21:35;;;;;;;;;;;;;;;;;;5046100;28;20098;-73
2023/01/19 10:24:28;;;;;;;10.25;4.82;;;;;;;;;;5039635;28;20052;-68
2023/01/19 10:27:19;;;;;;;9.38;4.22;;;;;;;;;;5054081;28;20025;-69
2023/01/19 10:30:06;;;;;;;8.75;3.70;;;;;;;;;;5040870;28;20059;-69
2023/01/19 10:32:51;;;;;;;8.38;3.97;;;;;;;;;;5058826;28;20029;-67
2023/01/19 10:35:36;;;;;;;7.68;4.07;;;;;;;;;;5052843;28;20195;-68
2023/01/19 10:38:22;;;;;;;8.20;4.20;;;;;;;;;;5043306;28;20060;-73
2023/01/19 10:41:11;;;;;;;7.57;4.20;;;;;;;;;;5056984;28;20037;-72
2023/01/19 10:44:02;;;;;;;10.75;4.78;;;;;;;;;;5051803;28;20043;-69
2023/01/19 10:46:48;;;;;;;6.88;4.00;;;;;;;;;;5037086;28;20417;-74
2023/01/19 10:49:38;;;;;;;11.43;4.35;;;;;;;;;;5051374;28;20055;-72
2023/01/19 10:52:34;;;;;;;8.45;4.38;;;;;;;;;;5051231;28;20032;-71
2023/01/19 10:55:24;;;;;;;8.30;4.38;;;;;;;;;;5055378;28;20131;-71
2023/01/19 10:58:27;;;;;;;7.43;4.28;;;;;;;;;;5038827;28;20025;-74
2023/01/19 11:01:17;;;;;;;7.45;4.35;;;;;;;;;;5050986;28;20388;-71
2023/01/19 11:04:18;;;;;;;8.23;3.72;;;;;;;;;;5025333;28;20040;-70
2023/01/19 11:07:25;;;;;;;10.27;5.05;;;;;;;;;;5042509;28;20104;-72
2023/01/19 11:10:14;;;;;;;7.93;4.10;;;;;;;;;;5054313;28;20113;-69
2023/01/19 11:13:02;;;;;;;16.65;4.18;;;;;;;;;;5041801;28;20046;-69
2023/01/19 11:15:57;;;;;;;9.23;4.57;;;;;;;;;;5040314;28;20840;-68
2023/01/19 11:18:43;;;;;;;9.38;3.97;;;;;;;;;;5041146;28;20590;-69
2023/01/19 11:21:29;;;;;;;8.90;4.03;;;;;;;;;;5050524;28;20125;-68
2023/01/19 11:24:15;;;;;;;8.40;3.80;;;;;;;;;;5052816;28;20086;-69
2023/01/19 11:27:02;;;;;;;7.18;3.67;;;;;;;;;;5041038;28;20028;-69
2023/01/19 11:29:49;;;;;;;7.22;4.40;;;;;;;;;;5042677;28;20952;-70
2023/01/19 11:32:35;;;;;;;7.25;3.58;;;;;;;;;;5037205;28;20033;-70
2023/01/19 11:35:48;;;;;;;7.65;3.60;;;;;;;;;;5042277;28;20534;-70
2023/01/19 11:38:39;;;;;;;13.70;4.50;;;;;;;;;;5048118;28;20377;-70
2023/01/19 11:41:29;;;;;;;7.00;4.25;;;;;;;;;;5045565;28;20082;-71
2023/01/19 11:44:20;;;;;;;10.30;3.97;;;;;;;;;;5043966;28;20025;-71
2023/01/19 11:47:10;;;;;;;9.43;3.90;;;;;;;;;;5053493;28;20064;-72
2023/01/19 11:49:57;;;;;;;7.78;4.65;;;;;;;;;;5042364;28;20033;-70
2023/01/19 11:53:03;;;;;;;11.27;4.88;;;;;;;;;;5038647;28;20037;-72
2023/01/19 11:55:54;;;;;;;6.53;3.80;;;;;;;;;;5052148;28;20021;-68
2023/01/19 11:58:41;;;;;;;10.15;3.80;;;;;;;;;;5036849;28;20021;-67
2023/01/19 12:01:38;;;;;;;6.68;3.60;;;;;;;;;;5024453;28;20036;-67
2023/01/19 12:04:34;;;;;;;30.48;3.80;;;;;;;;;;5050173;28;20037;-69
2023/01/19 12:07:22;;;;;;;7.25;4.00;;;;;;;;;;5038480;28;20037;-68
2023/01/19 12:10:17;;;;;;;8.93;3.90;;;;;;;;;;5059666;28;20488;-75
2023/01/19 12:13:03;;;;;;;6.43;3.63;;;;;;;;;;5041532;28;20404;-69
2023/01/19 12:15:51;;;;;;;7.13;3.60;;;;;;;;;;5056483;28;20033;-83
2023/01/19 12:18:43;;;;;;;7.25;3.80;;;;;;;;;;5053947;28;20036;-81
2023/01/19 12:21:28;;;;;;;6.75;3.38;;;;;;;;;;5060652;28;20368;-87
2023/01/19 12:24:16;;;;;;;6.13;3.83;;;;;;;;;;5043013;28;20472;-86
2023/01/19 12:27:05;;;;;;;9.27;4.30;;;;;;;;;;5041152;28;20376;-81
2023/01/19 12:29:53;;;;;;;6.10;3.55;;;;;;;;;;5044226;28;20120;-67
2023/01/19 12:32:38;;;;;;;6.68;4.15;;;;;;;;;;5043168;28;20480;-70
2023/01/19 12:35:42;;;;;;;6.00;2.83;;;;;;;;;;5052500;28;20482;-68
2023/01/19 12:38:46;;;;;;;8.77;3.95;;;;;;;;;;5039106;28;20044;-69
2023/01/19 12:41:38;;;;;;;7.25;3.72;;;;;;;;;;5035988;28;20078;-70
2023/01/19 12:44:24;;;;;;;5.82;3.53;;;;;;;;;;5042504;28;20418;-70
2023/01/19 12:47:09;;;;;;;12.18;3.83;;;;;;;;;;5041920;28;20112;-68
2023/01/19 12:49:58;;;;;;;7.68;3.47;;;;;;;;;;5044580;28;20032;-76
2023/01/19 12:52:51;;;;;;;7.37;3.87;;;;;;;;;;5056773;28;20044;-81
2023/01/19 12:55:37;;;;;;;6.28;3.80;;;;;;;;;;5044763;28;20033;-79
2023/01/19 12:58:23;;;;;;;8.13;3.88;;;;;;;;;;5026706;28;20117;-85
2023/01/19 13:01:13;;;;;;;7.45;3.60;;;;;;;;;;5043065;28;20033;-80
2023/01/19 13:04:25;;;;;;;13.48;4.15;;;;;;;;;;5057473;28;20087;-77
2023/01/19 13:07:12;;;;;;;7.78;3.42;;;;;;;;;;5041970;28;20029;-74
2023/01/19 13:10:33;;;;;;;6.85;3.58;;;;;;;;;;5042648;28;20404;-83
2023/01/19 13:13:22;;;;;;;7.00;3.33;;;;;;;;;;5051723;28;20252;-85
2023/01/19 13:16:08;;;;;;;;;;;;;;;;;;5059045;28;20399;-82
2023/01/19 13:18:59;;;;;;;8.32;3.63;;;;;;;;;;5041341;28;19920;-78
2023/01/19 13:21:48;;;;;;;5.57;3.33;;;;;;;;;;5055313;28;20029;-80
2023/01/19 13:24:53;;;;;;;8.07;3.08;;;;;;;;;;5044650;28;20107;-79
2023/01/19 13:27:39;;;;;;;7.55;3.63;;;;;;;;;;5030968;28;20029;-69
2023/01/19 13:30:26;;;;;;;7.60;3.28;;;;;;;;;;5031695;28;20041;-71
2023/01/19 13:33:18;;;;;;;6.70;3.30;;;;;;;;;;5042994;28;20028;-67
2023/01/19 13:36:03;;;;;;;8.27;2.90;;;;;;;;;;5055039;28;20029;-68
2023/01/19 13:38:49;;;;;;;7.05;3.65;;;;;;;;;;5051312;28;20172;-70
2023/01/19 13:41:36;;;;;;;6.38;3.40;;;;;;;;;;5041923;28;20029;-70
2023/01/19 13:44:26;;;;;;;8.30;3.33;;;;;;;;;;5044861;28;20026;-71
2023/01/19 13:47:14;;;;;;;7.15;3.63;;;;;;;;;;5054282;28;20052;-69
2023/01/19 13:50:00;;;;;;;6.75;3.20;;;;;;;;;;5039567;28;20572;-71
2023/01/19 13:52:47;;;;;;;7.40;3.80;;;;;;;;;;5046686;28;20076;-70
2023/01/19 13:55:32;;;;;;;8.93;4.05;;;;;;;;;;5040339;28;20055;-70
2023/01/19 13:58:22;;;;;;;6.85;3.80;;;;;;;;;;5038310;28;20488;-71
2023/01/19 14:01:18;;;;;;;6.65;4.05;;;;;;;;;;5053476;28;20029;-71
2023/01/19 14:04:04;;;;;;;6.25;3.70;;;;;;;;;;5054170;28;20029;-70
2023/01/19 14:06:53;;;;;;;12.07;5.15;;;;;;;;;;5040371;28;20059;-68
2023/01/19 14:09:38;;;;;;;7.40;4.35;;;;;;;;;;5025412;28;20455;-73
2023/01/19 14:12:24;;;;;;;8.13;4.03;;;;;;;;;;5037307;28;20476;-72
2023/01/19 14:15:13;;;;;;;6.90;3.83;;;;;;;;;;5040750;28;20060;-72
2023/01/19 14:18:10;;;;;;;10.50;5.00;;;;;;;;;;5064647;28;20064;-73
2023/01/19 14:21:01;;;;;;;10.68;4.93;;;;;;;;;;5042102;28;20599;-74
2023/01/19 14:23:48;;;;;;;7.10;3.90;;;;;;;;;;5053867;28;20121;-68
2023/01/19 14:26:36;;;;;;;12.65;4.55;;;;;;;;;;5040590;28;20041;-68
2023/01/19 14:29:29;;;;;;;8.27;4.40;;;;;;;;;;5041556;28;20545;-68
2023/01/19 14:32:14;;;;;;;6.43;4.07;;;;;;;;;;5027956;28;20041;-67
2023/01/19 14:35:02;;;;;;;7.85;3.78;;;;;;;;;;5039663;28;20090;-69
2023/01/19 14:37:49;;;;;;;7.15;4.00;;;;;;;;;;5041511;28;20079;-71
2023/01/19 14:40:36;;;;;;;9.50;4.45;;;;;;;;;;5054299;28;20107;-81
2023/01/19 14:43:26;;;;;;;8.15;4.60;;;;;;;;;;5044505;28;20055;-79
2023/01/19 14:46:18;;;;;;;10.63;5.25;;;;;;;;;;5056153;28;20129;-79
2023/01/19 14:49:05;;;;;;;9.25;4.30;;;;;;;;;;5047241;28;20036;-81
2023/01/19 14:51:50;;;;;;;7.70;4.10;;;;;;;;;;5052828;28;20037;-83
2023/01/19 14:54:38;;;;;;;7.55;3.97;;;;;;;;;;5041529;28;20017;-83
2023/01/19 14:57:23;;;;;;;10.90;4.38;;;;;;;;;;5054810;28;20064;-72
2023/01/19 15:00:14;;;;;;;6.97;3.83;;;;;;;;;;5050618;28;20030;-71
2023/01/19 15:02:59;;;;;;;9.30;4.25;;;;;;;;;;5041016;28;20040;-70
2023/01/19 15:05:45;;;;;;;9.55;4.30;;;;;;;;;;5053369;28;20115;-70
2023/01/19 15:08:32;;;;;;;9.02;4.70;;;;;;;;;;5021011;28;20024;-68
2023/01/19 15:11:26;;;;;;;10.27;4.75;;;;;;;;;;5039340;28;20072;-69
2023/01/19 15:14:16;;;;;;;8.65;4.57;;;;;;;;;;5046002;28;20056;-71
2023/01/19 15:17:01;;;;;;;7.75;4.20;;;;;;;;;;5053727;28;20029;-74
2023/01/19 15:19:46;;;;;;;10.43;4.30;;;;;;;;;;5045893;28;20071;-69
2023/01/19 15:22:31;;;;;;;8.23;4.53;;;;;;;;;;5046397;28;20112;-69
2023/01/19 15:25:19;;;;;;;8.45;4.57;;;;;;;;;;5041718;28;20463;-70
2023/01/19 15:28:08;;;;;;;9.70;5.22;;;;;;;;;;5058213;28;20033;-67
2023/01/19 15:30:54;;;;;;;8.43;4.95;;;;;;;;;;5031518;28;20491;-69
2023/01/19 15:33:42;;;;;;;12.23;5.40;;;;;;;;;;5040679;28;20025;-70
2023/01/19 15:36:27;;;;;;;14.48;5.15;;;;;;;;;;5056531;28;20799;-75
2023/01/19 15:39:12;;;;;;;9.52;3.90;;;;;;;;;;5034124;28;20027;-75
2023/01/19 15:41:58;;;;;;;9.43;5.38;;;;;;;;;;5054936;28;20036;-76
2023/01/19 15:44:44;;;;;;;9.02;4.47;;;;;;;;;;5055457;28;20115;-75
2023/01/19 15:47:29;;;;;;;8.70;4.70;;;;;;;;;;5042763;28;20384;-75
2023/01/19 15:50:14;;;;;;;9.40;4.82;;;;;;;;;;5043990;28;20485;-75
2023/01/19 15:52:59;;;;;;;8.77;4.95;;;;;;;;;;5050093;28;20739;-70
2023/01/19 15:55:48;;;;;;;9.90;4.68;;;;;;;;;;5046929;28;20431;-76
2023/01/19 15:58:33;;;;;;;10.40;5.57;;;;;;;;;;5059090;28;20036;-77
2023/01/19 16:01:20;;;;;;;11.15;4.80;;;;;;;;;;5057911;28;20029;-77
2023/01/19 16:04:06;;;;;;;10.20;5.57;;;;;;;;;;5049870;28;20033;-75
2023/01/19 16:06:51;;;;;;;11.00;5.10;;;;;;;;;;5046799;28;20032;-70
2023/01/19 16:09:37;;;;;;;9.30;4.80;;;;;;;;;;5045837;28;20037;-72
2023/01/19 16:12:22;;;;;;;8.25;4.43;;;;;;;;;;5040911;28;20036;-72
2023/01/19 16:15:07;;;;;;;9.25;4.53;;;;;;;;;;5044233;28;20844;-70
2023/01/19 16:17:53;;;;;;;7.22;3.92;;;;;;;;;;5058433;28;20020;-69
2023/01/19 16:20:38;;;;;;;12.35;5.40;;;;;;;;;;5058730;28;20112;-71
2023/01/19 16:23:23;;;;;;;7.55;4.25;;;;;;;;;;5041832;28;20017;-70
2023/01/19 16:26:23;;;;;;;6.60;3.88;;;;;;;;;;5045838;28;20017;-70
2023/01/19 16:29:09;;;;;;;9.15;4.53;;;;;;;;;;5046343;28;20118;-72
2023/01/19 16:31:54;;;;;;;6.38;3.63;;;;;;;;;;5056354;28;20068;-73
2023/01/19 16:34:40;;;;;;;8.52;4.70;;;;;;;;;;5059854;28;20036;-73
2023/01/19 16:37:25;;;;;;;7.85;4.15;;;;;;;;;;5053733;28;20029;-73
2023/01/19 16:40:10;;;;;;;7.97;4.75;;;;;;;;;;5056973;28;20023;-73
2023/01/19 16:42:56;;;;;;;7.35;4.25;;;;;;;;;;5032353;28;20025;-74
2023/01/19 16:45:58;;;;;;;9.43;4.68;;;;;;;;;;5041599;28;20033;-72